sensor_id;sensor_type;location;lat;lon;timestamp;temperature;humidity
70851;DHT22;58475;49.662;9.636;2022-08-11T00:00:19;15.90;64.40
70851;DHT22;58475;49.662;9.636;2022-08-11T00:02:50;16.05;63.52
70851;DHT22;58475;49.662;9.636;2022-08-11T00:05:18;16.00;63.60
70851;DHT22;58475;49.662;9.636;2022-08-11T00:07:50;15.90;63.44
70851;DHT22;58475;49.662;9.636;2022-08-11T00:10:18;15.94;66.17
70851;DHT22;58475;49.662;9.636;2022-08-11T00:12:51;15.84;63.54
70851;DHT22;58475;49.662;9.636;2022-08-11T00:15:16;15.90;64.18
70851;DHT22;58475;49.662;9.636;2022-08-11T00:17:42;16.08;63.03
70851;DHT22;58475;49.662;9.636;2022-08-11T00:20:11;15.64;67.00
70851;DHT22;58475;49.662;9.636;2022-08-11T00:22:39;15.43;67.20
70851;DHT22;58475;49.662;9.636;2022-08-11T00:25:14;15.36;67.81
70851;DHT22;58475;49.662;9.636;2022-08-11T00:27:41;15.44;67.37
70851;DHT22;58475;49.662;9.636;2022-08-11T00:30:08;15.10;68.71
70851;DHT22;58475;49.662;9.636;2022-08-11T00:32:36;15.06;68.83
70851;DHT22;58475;49.662;9.636;2022-08-11T00:35:04;14.88;68.15
70851;DHT22;58475;49.662;9.636;2022-08-11T00:37:31;15.02;67.95
70851;DHT22;58475;49.662;9.636;2022-08-11T00:39:57;15.16;68.20
70851;DHT22;58475;49.662;9.636;2022-08-11T00:45:12;15.16;69.78
70851;DHT22;58475;49.662;9.636;2022-08-11T00:50:51;14.60;70.31
70851;DHT22;58475;49.662;9.636;2022-08-11T00:53:33;14.61;70.74
70851;DHT22;58475;49.662;9.636;2022-08-11T01:04:28;14.85;70.25
70851;DHT22;58475;49.662;9.636;2022-08-11T01:09:54;14.64;70.60
70851;DHT22;58475;49.662;9.636;2022-08-11T01:15:33;14.33;70.68
70851;DHT22;58475;49.662;9.636;2022-08-11T01:18:35;14.57;70.24
70851;DHT22;58475;49.662;9.636;2022-08-11T01:27:42;14.21;71.71
70851;DHT22;58475;49.662;9.636;2022-08-11T01:33:24;14.06;72.16
70851;DHT22;58475;49.662;9.636;2022-08-11T01:38:58;14.02;71.41
70851;DHT22;58475;49.662;9.636;2022-08-11T01:47:37;13.93;72.95
70851;DHT22;58475;49.662;9.636;2022-08-11T01:53:33;13.98;72.79
70851;DHT22;58475;49.662;9.636;2022-08-11T01:56:48;13.95;72.48
70851;DHT22;58475;49.662;9.636;2022-08-11T01:59:19;13.90;72.31
70851;DHT22;58475;49.662;9.636;2022-08-11T02:02:08;13.92;72.47
70851;DHT22;58475;49.662;9.636;2022-08-11T02:04:40;13.57;73.89
70851;DHT22;58475;49.662;9.636;2022-08-11T02:10:22;13.70;73.77
70851;DHT22;58475;49.662;9.636;2022-08-11T02:15:50;13.76;72.71
70851;DHT22;58475;49.662;9.636;2022-08-11T02:18:27;13.63;72.55
70851;DHT22;58475;49.662;9.636;2022-08-11T02:21:15;13.52;72.92
70851;DHT22;58475;49.662;9.636;2022-08-11T02:24:30;13.61;74.50
70851;DHT22;58475;49.662;9.636;2022-08-11T02:27:28;13.70;72.90
70851;DHT22;58475;49.662;9.636;2022-08-11T02:30:04;13.48;73.16
70851;DHT22;58475;49.662;9.636;2022-08-11T02:35:54;13.55;74.94
70851;DHT22;58475;49.662;9.636;2022-08-11T02:44:56;13.34;74.64
70851;DHT22;58475;49.662;9.636;2022-08-11T02:47:55;13.25;75.32
70851;DHT22;58475;49.662;9.636;2022-08-11T02:51:04;13.14;76.34
70851;DHT22;58475;49.662;9.636;2022-08-11T02:53:43;13.06;75.97
70851;DHT22;58475;49.662;9.636;2022-08-11T02:58:59;13.10;76.01
70851;DHT22;58475;49.662;9.636;2022-08-11T03:01:54;13.10;75.61
70851;DHT22;58475;49.662;9.636;2022-08-11T03:04:29;13.06;75.03
70851;DHT22;58475;49.662;9.636;2022-08-11T03:12:07;12.89;76.71
70851;DHT22;58475;49.662;9.636;2022-08-11T03:23:27;13.24;74.47
70851;DHT22;58475;49.662;9.636;2022-08-11T03:26:06;13.41;74.28
70851;DHT22;58475;49.662;9.636;2022-08-11T03:33:48;13.28;73.30
70851;DHT22;58475;49.662;9.636;2022-08-11T03:41:52;13.08;74.18
70851;DHT22;58475;49.662;9.636;2022-08-11T03:47:24;12.81;75.58
70851;DHT22;58475;49.662;9.636;2022-08-11T03:50:21;12.69;75.67
70851;DHT22;58475;49.662;9.636;2022-08-11T03:53:01;12.69;75.70
70851;DHT22;58475;49.662;9.636;2022-08-11T04:01:02;12.96;72.84
70851;DHT22;58475;49.662;9.636;2022-08-11T04:09:25;12.42;77.25
70851;DHT22;58475;49.662;9.636;2022-08-11T04:18:50;12.60;77.15
70851;DHT22;58475;49.662;9.636;2022-08-11T04:30:16;12.12;77.89
70851;DHT22;58475;49.662;9.636;2022-08-11T04:35:38;12.25;76.84
70851;DHT22;58475;49.662;9.636;2022-08-11T04:38:15;12.42;76.63
70851;DHT22;58475;49.662;9.636;2022-08-11T04:44:14;12.55;76.45
70851;DHT22;58475;49.662;9.636;2022-08-11T04:49:37;12.87;74.55
70851;DHT22;58475;49.662;9.636;2022-08-11T04:58:43;13.49;73.82
70851;DHT22;58475;49.662;9.636;2022-08-11T05:04:19;13.72;72.25
70851;DHT22;58475;49.662;9.636;2022-08-11T05:14:59;14.65;68.61
70851;DHT22;58475;49.662;9.636;2022-08-11T05:20:53;15.10;66.20
70851;DHT22;58475;49.662;9.636;2022-08-11T05:23:45;15.03;65.82
70851;DHT22;58475;49.662;9.636;2022-08-11T05:26:47;15.22;65.13
70851;DHT22;58475;49.662;9.636;2022-08-11T05:29:40;15.46;64.82
70851;DHT22;58475;49.662;9.636;2022-08-11T05:32:32;15.76;64.49
70851;DHT22;58475;49.662;9.636;2022-08-11T05:35:25;15.90;64.30
70851;DHT22;58475;49.662;9.636;2022-08-11T05:37:53;16.15;63.76
70851;DHT22;58475;49.662;9.636;2022-08-11T05:40:38;16.38;63.84
70851;DHT22;58475;49.662;9.636;2022-08-11T05:43:29;16.72;62.28
70851;DHT22;58475;49.662;9.636;2022-08-11T05:46:13;16.86;61.45
70851;DHT22;58475;49.662;9.636;2022-08-11T05:48:57;17.03;60.99
70851;DHT22;58475;49.662;9.636;2022-08-11T05:51:42;17.14;61.05
70851;DHT22;58475;49.662;9.636;2022-08-11T05:54:28;17.35;60.71
70851;DHT22;58475;49.662;9.636;2022-08-11T05:57:21;17.58;60.63
70851;DHT22;58475;49.662;9.636;2022-08-11T05:59:48;17.82;60.31
70851;DHT22;58475;49.662;9.636;2022-08-11T06:02:14;18.06;59.24
70851;DHT22;58475;49.662;9.636;2022-08-11T06:04:40;18.16;59.95
70851;DHT22;58475;49.662;9.636;2022-08-11T06:07:08;17.95;59.37
70851;DHT22;58475;49.662;9.636;2022-08-11T06:09:36;18.13;58.32
70851;DHT22;58475;49.662;9.636;2022-08-11T06:12:08;18.44;59.17
70851;DHT22;58475;49.662;9.636;2022-08-11T06:14:41;18.83;57.54
70851;DHT22;58475;49.662;9.636;2022-08-11T06:17:07;19.12;57.36
70851;DHT22;58475;49.662;9.636;2022-08-11T06:19:35;19.35;56.15
70851;DHT22;58475;49.662;9.636;2022-08-11T06:22:03;19.25;56.19
70851;DHT22;58475;49.662;9.636;2022-08-11T06:24:29;19.50;56.10
70851;DHT22;58475;49.662;9.636;2022-08-11T06:26:57;19.81;55.28
70851;DHT22;58475;49.662;9.636;2022-08-11T06:29:23;19.88;55.22
70851;DHT22;58475;49.662;9.636;2022-08-11T06:31:55;20.25;55.22
70851;DHT22;58475;49.662;9.636;2022-08-11T06:34:31;20.49;54.03
70851;DHT22;58475;49.662;9.636;2022-08-11T06:40:20;21.19;53.14
70851;DHT22;58475;49.662;9.636;2022-08-11T06:48:05;21.42;51.83
70851;DHT22;58475;49.662;9.636;2022-08-11T06:50:35;22.36;52.00
70851;DHT22;58475;49.662;9.636;2022-08-11T06:53:20;22.03;50.55
70851;DHT22;58475;49.662;9.636;2022-08-11T06:55:48;22.37;50.31
70851;DHT22;58475;49.662;9.636;2022-08-11T06:58:38;22.70;49.38
70851;DHT22;58475;49.662;9.636;2022-08-11T07:02:06;22.95;49.43
70851;DHT22;58475;49.662;9.636;2022-08-11T07:04:15;23.29;48.50
70851;DHT22;58475;49.662;9.636;2022-08-11T07:06:54;23.62;48.13
70851;DHT22;58475;49.662;9.636;2022-08-11T07:13:02;24.27;47.39
70851;DHT22;58475;49.662;9.636;2022-08-11T07:15:47;24.51;46.56
70851;DHT22;58475;49.662;9.636;2022-08-11T07:18:26;24.28;46.69
70851;DHT22;58475;49.662;9.636;2022-08-11T07:21:25;24.57;46.00
70851;DHT22;58475;49.662;9.636;2022-08-11T07:24:16;25.30;44.84
70851;DHT22;58475;49.662;9.636;2022-08-11T07:27:03;25.36;44.28
70851;DHT22;58475;49.662;9.636;2022-08-11T07:29:49;25.89;41.16
70851;DHT22;58475;49.662;9.636;2022-08-11T07:32:31;25.95;41.28
70851;DHT22;58475;49.662;9.636;2022-08-11T07:35:27;26.52;41.61
70851;DHT22;58475;49.662;9.636;2022-08-11T07:37:57;26.93;41.82
70851;DHT22;58475;49.662;9.636;2022-08-11T07:40:24;26.77;40.59
70851;DHT22;58475;49.662;9.636;2022-08-11T07:42:51;27.30;40.67
70851;DHT22;58475;49.662;9.636;2022-08-11T07:45:18;27.46;39.93
70851;DHT22;58475;49.662;9.636;2022-08-11T07:48:03;28.13;41.32
70851;DHT22;58475;49.662;9.636;2022-08-11T07:50:49;27.94;38.33
70851;DHT22;58475;49.662;9.636;2022-08-11T07:53:33;27.39;37.79
70851;DHT22;58475;49.662;9.636;2022-08-11T07:56:03;27.27;39.06
70851;DHT22;58475;49.662;9.636;2022-08-11T07:58:30;27.18;39.50
70851;DHT22;58475;49.662;9.636;2022-08-11T08:01:26;26.97;37.60
70851;DHT22;58475;49.662;9.636;2022-08-11T08:04:12;27.15;38.49
70851;DHT22;58475;49.662;9.636;2022-08-11T08:06:57;26.67;38.26
70851;DHT22;58475;49.662;9.636;2022-08-11T08:09:42;27.75;37.89
70851;DHT22;58475;49.662;9.636;2022-08-11T08:12:27;27.54;37.06
70851;DHT22;58475;49.662;9.636;2022-08-11T08:15:14;27.93;36.32
70851;DHT22;58475;49.662;9.636;2022-08-11T08:18:00;28.50;38.67
70851;DHT22;58475;49.662;9.636;2022-08-11T08:20:33;28.41;35.79
70851;DHT22;58475;49.662;9.636;2022-08-11T08:23:01;29.19;36.61
70851;DHT22;58475;49.662;9.636;2022-08-11T08:25:31;29.29;34.71
70851;DHT22;58475;49.662;9.636;2022-08-11T08:27:59;29.08;33.68
70851;DHT22;58475;49.662;9.636;2022-08-11T08:30:26;29.06;33.72
70851;DHT22;58475;49.662;9.636;2022-08-11T08:35:41;29.22;33.96
70851;DHT22;58475;49.662;9.636;2022-08-11T08:38:08;29.37;33.52
70851;DHT22;58475;49.662;9.636;2022-08-11T08:40:34;29.19;33.52
70851;DHT22;58475;49.662;9.636;2022-08-11T08:43:08;29.27;33.81
70851;DHT22;58475;49.662;9.636;2022-08-11T08:45:36;29.74;33.96
70851;DHT22;58475;49.662;9.636;2022-08-11T08:48:07;29.51;34.05
70851;DHT22;58475;49.662;9.636;2022-08-11T08:50:49;29.42;32.45
70851;DHT22;58475;49.662;9.636;2022-08-11T08:53:38;29.51;33.11
70851;DHT22;58475;49.662;9.636;2022-08-11T08:56:06;29.87;33.00
70851;DHT22;58475;49.662;9.636;2022-08-11T08:58:33;30.04;32.69
70851;DHT22;58475;49.662;9.636;2022-08-11T09:01:00;30.27;32.45
70851;DHT22;58475;49.662;9.636;2022-08-11T09:03:27;29.70;32.02
70851;DHT22;58475;49.662;9.636;2022-08-11T09:05:53;30.07;32.05
70851;DHT22;58475;49.662;9.636;2022-08-11T09:08:21;29.23;32.42
70851;DHT22;58475;49.662;9.636;2022-08-11T09:10:48;30.35;32.48
70851;DHT22;58475;49.662;9.636;2022-08-11T09:13:46;30.55;30.67
70851;DHT22;58475;49.662;9.636;2022-08-11T09:16:12;30.46;31.43
70851;DHT22;58475;49.662;9.636;2022-08-11T09:18:40;30.69;31.04
70851;DHT22;58475;49.662;9.636;2022-08-11T09:21:10;30.53;30.62
70851;DHT22;58475;49.662;9.636;2022-08-11T09:23:36;30.80;30.30
70851;DHT22;58475;49.662;9.636;2022-08-11T09:26:21;29.09;31.02
70851;DHT22;58475;49.662;9.636;2022-08-11T09:29:07;30.51;30.22
70851;DHT22;58475;49.662;9.636;2022-08-11T09:31:34;30.68;30.28
70851;DHT22;58475;49.662;9.636;2022-08-11T09:34:00;30.56;30.62
70851;DHT22;58475;49.662;9.636;2022-08-11T09:36:27;31.37;30.76
70851;DHT22;58475;49.662;9.636;2022-08-11T09:39:12;31.33;30.04
70851;DHT22;58475;49.662;9.636;2022-08-11T09:41:59;31.28;29.07
70851;DHT22;58475;49.662;9.636;2022-08-11T09:44:25;30.62;28.50
70851;DHT22;58475;49.662;9.636;2022-08-11T09:47:10;30.97;29.42
70851;DHT22;58475;49.662;9.636;2022-08-11T09:49:44;30.82;27.78
70851;DHT22;58475;49.662;9.636;2022-08-11T09:52:11;31.72;28.43
70851;DHT22;58475;49.662;9.636;2022-08-11T09:54:39;31.93;28.16
70851;DHT22;58475;49.662;9.636;2022-08-11T09:57:05;31.10;27.65
70851;DHT22;58475;49.662;9.636;2022-08-11T09:59:51;30.42;28.90
70851;DHT22;58475;49.662;9.636;2022-08-11T10:02:22;31.67;28.36
70851;DHT22;58475;49.662;9.636;2022-08-11T10:04:51;31.81;28.18
70851;DHT22;58475;49.662;9.636;2022-08-11T10:07:39;32.01;27.37
70851;DHT22;58475;49.662;9.636;2022-08-11T10:10:06;31.47;27.46
70851;DHT22;58475;49.662;9.636;2022-08-11T10:12:33;31.88;27.88
70851;DHT22;58475;49.662;9.636;2022-08-11T10:15:09;32.05;28.03
70851;DHT22;58475;49.662;9.636;2022-08-11T10:17:57;31.37;26.63
70851;DHT22;58475;49.662;9.636;2022-08-11T10:20:46;31.55;27.19
70851;DHT22;58475;49.662;9.636;2022-08-11T10:23:14;32.27;28.39
70851;DHT22;58475;49.662;9.636;2022-08-11T10:25:59;32.66;27.42
70851;DHT22;58475;49.662;9.636;2022-08-11T10:28:44;32.25;27.57
70851;DHT22;58475;49.662;9.636;2022-08-11T10:31:09;32.20;26.38
70851;DHT22;58475;49.662;9.636;2022-08-11T10:34:10;33.04;26.51
70851;DHT22;58475;49.662;9.636;2022-08-11T10:36:39;33.25;26.88
70851;DHT22;58475;49.662;9.636;2022-08-11T10:39:18;32.95;27.30
70851;DHT22;58475;49.662;9.636;2022-08-11T10:41:46;32.63;26.62
70851;DHT22;58475;49.662;9.636;2022-08-11T10:44:37;32.44;26.35
70851;DHT22;58475;49.662;9.636;2022-08-11T10:47:04;32.91;27.19
70851;DHT22;58475;49.662;9.636;2022-08-11T10:49:48;32.39;26.65
70851;DHT22;58475;49.662;9.636;2022-08-11T10:52:35;33.15;27.25
70851;DHT22;58475;49.662;9.636;2022-08-11T10:55:20;33.10;26.75
70851;DHT22;58475;49.662;9.636;2022-08-11T10:58:04;32.97;26.14
70851;DHT22;58475;49.662;9.636;2022-08-11T11:00:50;33.36;27.07
70851;DHT22;58475;49.662;9.636;2022-08-11T11:03:16;33.19;26.51
70851;DHT22;58475;49.662;9.636;2022-08-11T11:05:44;33.10;26.49
70851;DHT22;58475;49.662;9.636;2022-08-11T11:08:15;33.21;26.26
70851;DHT22;58475;49.662;9.636;2022-08-11T11:11:01;33.21;25.50
70851;DHT22;58475;49.662;9.636;2022-08-11T11:13:29;31.78;25.89
70851;DHT22;58475;49.662;9.636;2022-08-11T11:16:15;32.43;25.71
70851;DHT22;58475;49.662;9.636;2022-08-11T11:18:50;33.25;26.04
70851;DHT22;58475;49.662;9.636;2022-08-11T11:21:18;32.87;26.04
70851;DHT22;58475;49.662;9.636;2022-08-11T11:24:15;33.42;25.29
70851;DHT22;58475;49.662;9.636;2022-08-11T11:27:09;33.70;25.30
70851;DHT22;58475;49.662;9.636;2022-08-11T11:32:22;33.11;24.70
70851;DHT22;58475;49.662;9.636;2022-08-11T11:37:35;33.46;25.11
70851;DHT22;58475;49.662;9.636;2022-08-11T11:40:08;33.77;24.74
70851;DHT22;58475;49.662;9.636;2022-08-11T11:42:39;32.97;24.11
70851;DHT22;58475;49.662;9.636;2022-08-11T11:45:06;32.97;24.16
70851;DHT22;58475;49.662;9.636;2022-08-11T11:47:32;32.37;25.22
70851;DHT22;58475;49.662;9.636;2022-08-11T11:50:00;33.08;24.67
70851;DHT22;58475;49.662;9.636;2022-08-11T11:52:26;33.39;24.61
70851;DHT22;58475;49.662;9.636;2022-08-11T11:54:55;33.12;24.85
70851;DHT22;58475;49.662;9.636;2022-08-11T11:57:21;32.43;25.82
70851;DHT22;58475;49.662;9.636;2022-08-11T12:00:09;32.78;26.18
70851;DHT22;58475;49.662;9.636;2022-08-11T12:02:55;32.64;24.89
70851;DHT22;58475;49.662;9.636;2022-08-11T12:05:23;32.54;25.83
70851;DHT22;58475;49.662;9.636;2022-08-11T12:07:49;33.26;25.51
70851;DHT22;58475;49.662;9.636;2022-08-11T12:10:35;33.01;24.68
70851;DHT22;58475;49.662;9.636;2022-08-11T12:13:01;32.90;25.20
70851;DHT22;58475;49.662;9.636;2022-08-11T12:15:47;32.73;24.36
70851;DHT22;58475;49.662;9.636;2022-08-11T12:18:14;33.22;25.12
70851;DHT22;58475;49.662;9.636;2022-08-11T12:20:41;33.48;27.26
70851;DHT22;58475;49.662;9.636;2022-08-11T12:23:08;34.14;26.59
70851;DHT22;58475;49.662;9.636;2022-08-11T12:25:52;33.96;25.57
70851;DHT22;58475;49.662;9.636;2022-08-11T12:28:36;33.15;24.72
70851;DHT22;58475;49.662;9.636;2022-08-11T12:31:05;33.22;25.63
70851;DHT22;58475;49.662;9.636;2022-08-11T12:33:35;33.63;24.92
70851;DHT22;58475;49.662;9.636;2022-08-11T12:36:01;34.25;26.50
70851;DHT22;58475;49.662;9.636;2022-08-11T12:38:28;33.94;25.74
70851;DHT22;58475;49.662;9.636;2022-08-11T12:40:54;33.75;25.20
70851;DHT22;58475;49.662;9.636;2022-08-11T12:43:42;33.77;24.73
70851;DHT22;58475;49.662;9.636;2022-08-11T12:48:57;33.93;24.74
70851;DHT22;58475;49.662;9.636;2022-08-11T12:51:48;33.49;24.19
70851;DHT22;58475;49.662;9.636;2022-08-11T12:54:30;33.39;26.09
70851;DHT22;58475;49.662;9.636;2022-08-11T12:57:24;33.56;24.58
70851;DHT22;58475;49.662;9.636;2022-08-11T13:00:09;34.03;25.03
70851;DHT22;58475;49.662;9.636;2022-08-11T13:02:54;33.04;24.34
70851;DHT22;58475;49.662;9.636;2022-08-11T13:05:41;33.49;24.98
70851;DHT22;58475;49.662;9.636;2022-08-11T13:08:07;33.26;24.57
70851;DHT22;58475;49.662;9.636;2022-08-11T13:10:33;33.21;24.71
70851;DHT22;58475;49.662;9.636;2022-08-11T13:13:18;32.88;24.94
70851;DHT22;58475;49.662;9.636;2022-08-11T13:23:27;33.66;23.65
70851;DHT22;58475;49.662;9.636;2022-08-11T13:25:54;33.73;23.38
70851;DHT22;58475;49.662;9.636;2022-08-11T13:28:21;33.44;23.84
70851;DHT22;58475;49.662;9.636;2022-08-11T13:30:50;33.55;24.42
70851;DHT22;58475;49.662;9.636;2022-08-11T13:33:40;32.84;22.95
70851;DHT22;58475;49.662;9.636;2022-08-11T13:36:07;33.12;24.46
70851;DHT22;58475;49.662;9.636;2022-08-11T13:38:33;33.29;23.13
70851;DHT22;58475;49.662;9.636;2022-08-11T13:41:00;33.66;23.47
70851;DHT22;58475;49.662;9.636;2022-08-11T13:43:27;33.99;23.73
70851;DHT22;58475;49.662;9.636;2022-08-11T13:45:54;34.24;25.23
70851;DHT22;58475;49.662;9.636;2022-08-11T13:48:40;33.42;23.21
70851;DHT22;58475;49.662;9.636;2022-08-11T13:51:08;33.45;23.48
70851;DHT22;58475;49.662;9.636;2022-08-11T13:53:52;33.29;24.10
70851;DHT22;58475;49.662;9.636;2022-08-11T13:56:21;33.80;23.76
70851;DHT22;58475;49.662;9.636;2022-08-11T13:58:53;32.98;24.05
70851;DHT22;58475;49.662;9.636;2022-08-11T14:01:19;32.85;23.21
70851;DHT22;58475;49.662;9.636;2022-08-11T14:03:46;33.22;22.60
70851;DHT22;58475;49.662;9.636;2022-08-11T14:06:19;33.58;22.85
70851;DHT22;58475;49.662;9.636;2022-08-11T14:08:51;32.44;23.19
70851;DHT22;58475;49.662;9.636;2022-08-11T14:11:21;33.17;23.53
70851;DHT22;58475;49.662;9.636;2022-08-11T14:14:12;33.42;24.45
70851;DHT22;58475;49.662;9.636;2022-08-11T14:16:42;33.46;23.23
70851;DHT22;58475;49.662;9.636;2022-08-11T14:19:13;33.97;23.87
70851;DHT22;58475;49.662;9.636;2022-08-11T14:21:43;33.48;23.59
70851;DHT22;58475;49.662;9.636;2022-08-11T14:24:31;33.38;22.49
70851;DHT22;58475;49.662;9.636;2022-08-11T14:26:59;33.18;23.15
70851;DHT22;58475;49.662;9.636;2022-08-11T14:29:30;32.84;23.83
70851;DHT22;58475;49.662;9.636;2022-08-11T14:32:03;32.43;24.26
70851;DHT22;58475;49.662;9.636;2022-08-11T14:34:40;32.61;23.77
70851;DHT22;58475;49.662;9.636;2022-08-11T14:37:18;32.44;23.30
70851;DHT22;58475;49.662;9.636;2022-08-11T14:39:52;32.83;24.90
70851;DHT22;58475;49.662;9.636;2022-08-11T14:42:22;32.94;23.76
70851;DHT22;58475;49.662;9.636;2022-08-11T14:45:13;33.56;24.32
70851;DHT22;58475;49.662;9.636;2022-08-11T14:48:00;33.36;25.34
70851;DHT22;58475;49.662;9.636;2022-08-11T14:50:28;33.35;23.52
70851;DHT22;58475;49.662;9.636;2022-08-11T14:52:57;33.28;23.16
70851;DHT22;58475;49.662;9.636;2022-08-11T14:55:25;33.63;23.69
70851;DHT22;58475;49.662;9.636;2022-08-11T14:58:13;33.36;22.59
70851;DHT22;58475;49.662;9.636;2022-08-11T15:00:40;32.83;23.86
70851;DHT22;58475;49.662;9.636;2022-08-11T15:03:07;32.90;23.30
70851;DHT22;58475;49.662;9.636;2022-08-11T15:05:37;33.14;23.04
70851;DHT22;58475;49.662;9.636;2022-08-11T15:08:05;32.57;23.72
70851;DHT22;58475;49.662;9.636;2022-08-11T15:10:32;32.39;23.17
70851;DHT22;58475;49.662;9.636;2022-08-11T15:12:59;33.31;23.37
70851;DHT22;58475;49.662;9.636;2022-08-11T15:15:25;33.01;24.27
70851;DHT22;58475;49.662;9.636;2022-08-11T15:18:12;32.83;23.65
70851;DHT22;58475;49.662;9.636;2022-08-11T15:20:42;33.44;24.11
70851;DHT22;58475;49.662;9.636;2022-08-11T15:23:27;32.88;23.43
70851;DHT22;58475;49.662;9.636;2022-08-11T15:26:24;32.78;22.56
70851;DHT22;58475;49.662;9.636;2022-08-11T15:29:13;33.34;23.26
70851;DHT22;58475;49.662;9.636;2022-08-11T15:31:58;32.92;23.86
70851;DHT22;58475;49.662;9.636;2022-08-11T15:34:46;32.95;22.84
70851;DHT22;58475;49.662;9.636;2022-08-11T15:37:32;33.03;23.08
70851;DHT22;58475;49.662;9.636;2022-08-11T15:42:52;31.99;24.26
70851;DHT22;58475;49.662;9.636;2022-08-11T15:45:40;32.06;23.70
70851;DHT22;58475;49.662;9.636;2022-08-11T15:48:17;32.46;23.81
70851;DHT22;58475;49.662;9.636;2022-08-11T15:50:47;32.46;23.48
70851;DHT22;58475;49.662;9.636;2022-08-11T15:53:26;31.81;23.91
70851;DHT22;58475;49.662;9.636;2022-08-11T15:55:53;32.12;24.82
70851;DHT22;58475;49.662;9.636;2022-08-11T15:58:20;32.16;24.14
70851;DHT22;58475;49.662;9.636;2022-08-11T16:01:07;31.84;23.78
70851;DHT22;58475;49.662;9.636;2022-08-11T16:03:56;31.68;23.52
70851;DHT22;58475;49.662;9.636;2022-08-11T16:06:56;32.04;23.77
70851;DHT22;58475;49.662;9.636;2022-08-11T16:11:56;32.13;24.45
70851;DHT22;58475;49.662;9.636;2022-08-11T16:14:23;31.85;24.97
70851;DHT22;58475;49.662;9.636;2022-08-11T16:17:10;32.23;24.27
70851;DHT22;58475;49.662;9.636;2022-08-11T16:19:38;31.93;24.62
70851;DHT22;58475;49.662;9.636;2022-08-11T16:22:09;31.89;23.91
70851;DHT22;58475;49.662;9.636;2022-08-11T16:24:38;31.42;25.19
70851;DHT22;58475;49.662;9.636;2022-08-11T16:27:09;31.13;24.76
70851;DHT22;58475;49.662;9.636;2022-08-11T16:29:40;31.00;25.24
70851;DHT22;58475;49.662;9.636;2022-08-11T16:32:07;30.93;25.55
70851;DHT22;58475;49.662;9.636;2022-08-11T16:34:49;31.04;25.80
70851;DHT22;58475;49.662;9.636;2022-08-11T16:37:35;30.79;27.05
70851;DHT22;58475;49.662;9.636;2022-08-11T16:40:20;30.42;26.91
70851;DHT22;58475;49.662;9.636;2022-08-11T16:42:47;30.31;27.07
70851;DHT22;58475;49.662;9.636;2022-08-11T16:45:32;30.45;27.42
70851;DHT22;58475;49.662;9.636;2022-08-11T16:48:17;30.22;25.61
70851;DHT22;58475;49.662;9.636;2022-08-11T16:50:43;30.32;26.22
70851;DHT22;58475;49.662;9.636;2022-08-11T16:53:09;30.15;27.24
70851;DHT22;58475;49.662;9.636;2022-08-11T16:55:35;30.11;25.58
70851;DHT22;58475;49.662;9.636;2022-08-11T16:58:01;29.98;26.76
70851;DHT22;58475;49.662;9.636;2022-08-11T17:00:47;30.11;28.57
70851;DHT22;58475;49.662;9.636;2022-08-11T17:03:14;30.02;27.61
70851;DHT22;58475;49.662;9.636;2022-08-11T17:05:58;29.98;26.74
70851;DHT22;58475;49.662;9.636;2022-08-11T17:08:52;29.80;26.99
70851;DHT22;58475;49.662;9.636;2022-08-11T17:11:41;29.64;26.67
70851;DHT22;58475;49.662;9.636;2022-08-11T17:14:43;29.61;26.37
70851;DHT22;58475;49.662;9.636;2022-08-11T17:17:33;29.54;27.00
70851;DHT22;58475;49.662;9.636;2022-08-11T17:20:04;29.42;28.52
70851;DHT22;58475;49.662;9.636;2022-08-11T17:22:35;29.12;30.58
70851;DHT22;58475;49.662;9.636;2022-08-11T17:25:21;29.12;28.75
70851;DHT22;58475;49.662;9.636;2022-08-11T17:27:51;29.12;30.69
70851;DHT22;58475;49.662;9.636;2022-08-11T17:30:18;28.79;32.53
70851;DHT22;58475;49.662;9.636;2022-08-11T17:32:48;28.61;34.04
70851;DHT22;58475;49.662;9.636;2022-08-11T17:35:38;28.62;30.66
70851;DHT22;58475;49.662;9.636;2022-08-11T17:38:09;28.48;30.42
70851;DHT22;58475;49.662;9.636;2022-08-11T17:40:38;28.31;30.16
70851;DHT22;58475;49.662;9.636;2022-08-11T17:43:07;28.23;31.85
70851;DHT22;58475;49.662;9.636;2022-08-11T17:45:54;28.28;30.36
70851;DHT22;58475;49.662;9.636;2022-08-11T17:48:41;28.07;29.55
70851;DHT22;58475;49.662;9.636;2022-08-11T17:51:11;28.16;29.13
70851;DHT22;58475;49.662;9.636;2022-08-11T17:53:57;28.09;30.61
70851;DHT22;58475;49.662;9.636;2022-08-11T17:56:43;27.97;30.26
70851;DHT22;58475;49.662;9.636;2022-08-11T17:59:28;27.90;30.65
70851;DHT22;58475;49.662;9.636;2022-08-11T18:02:12;27.56;34.43
70851;DHT22;58475;49.662;9.636;2022-08-11T18:04:58;27.46;33.48
70851;DHT22;58475;49.662;9.636;2022-08-11T18:07:24;27.38;30.58
70851;DHT22;58475;49.662;9.636;2022-08-11T18:10:09;27.30;36.12
70851;DHT22;58475;49.662;9.636;2022-08-11T18:12:54;27.05;33.41
70851;DHT22;58475;49.662;9.636;2022-08-11T18:15:42;27.05;34.49
70851;DHT22;58475;49.662;9.636;2022-08-11T18:18:26;26.76;34.92
70851;DHT22;58475;49.662;9.636;2022-08-11T18:21:14;26.64;34.74
70851;DHT22;58475;49.662;9.636;2022-08-11T18:24:02;26.83;31.78
70851;DHT22;58475;49.662;9.636;2022-08-11T18:26:47;26.33;36.29
70851;DHT22;58475;49.662;9.636;2022-08-11T18:29:33;26.35;36.01
70851;DHT22;58475;49.662;9.636;2022-08-11T18:32:19;26.35;37.35
70851;DHT22;58475;49.662;9.636;2022-08-11T18:35:06;26.16;36.12
70851;DHT22;58475;49.662;9.636;2022-08-11T18:37:55;25.57;39.80
70851;DHT22;58475;49.662;9.636;2022-08-11T18:40:41;25.40;40.43
70851;DHT22;58475;49.662;9.636;2022-08-11T18:43:27;25.13;41.33
70851;DHT22;58475;49.662;9.636;2022-08-11T18:46:15;24.92;41.34
70851;DHT22;58475;49.662;9.636;2022-08-11T18:49:02;24.68;40.50
70851;DHT22;58475;49.662;9.636;2022-08-11T18:51:51;24.62;42.29
70851;DHT22;58475;49.662;9.636;2022-08-11T18:54:38;24.45;42.26
70851;DHT22;58475;49.662;9.636;2022-08-11T18:57:23;24.49;42.21
70851;DHT22;58475;49.662;9.636;2022-08-11T19:00:08;24.31;42.39
70851;DHT22;58475;49.662;9.636;2022-08-11T19:02:54;24.00;42.68
70851;DHT22;58475;49.662;9.636;2022-08-11T19:05:39;23.90;44.28
70851;DHT22;58475;49.662;9.636;2022-08-11T19:08:28;23.65;45.00
70851;DHT22;58475;49.662;9.636;2022-08-11T19:11:13;23.50;44.50
70851;DHT22;58475;49.662;9.636;2022-08-11T19:14:01;23.45;44.40
70851;DHT22;58475;49.662;9.636;2022-08-11T19:16:47;23.37;44.74
70851;DHT22;58475;49.662;9.636;2022-08-11T19:19:34;23.23;43.71
70851;DHT22;58475;49.662;9.636;2022-08-11T19:22:20;23.00;41.42
70851;DHT22;58475;49.662;9.636;2022-08-11T19:25:05;23.11;40.70
70851;DHT22;58475;49.662;9.636;2022-08-11T19:27:50;22.98;43.30
70851;DHT22;58475;49.662;9.636;2022-08-11T19:30:34;23.00;42.73
70851;DHT22;58475;49.662;9.636;2022-08-11T19:33:19;22.91;41.70